Time;durP1;ratioP1;P1;durP2;ratioP2;P2;SDS_P1;SDS_P2;PMS_P1;PMS_P2;Temp;Humidity;BMP_temperature;BMP_pressure;BME280_temperature;BME280_humidity;BME280_pressure;Samples;Min_cycle;Max_cycle;Signal;HPM_P1;HPM_P2
2023/06/16 00:00:47;;;;;;;9.90;3.20;;;21.20;99.90;;;;;;4085473;29;20227;-92
2023/06/16 00:02:49;;;;;;;9.18;3.47;;;21.00;99.90;;;;;;4085441;29;20222;-90
2023/06/16 00:04:50;;;;;;;9.07;3.40;;;20.80;99.90;;;;;;4085768;29;20167;-90
2023/06/16 00:06:53;;;;;;;8.23;3.58;;;20.90;99.90;;;;;;4085680;29;20253;-93
2023/06/16 00:08:54;;;;;;;10.90;3.67;;;21.10;99.90;;;;;;4085521;29;20215;-94
2023/06/16 00:10:55;;;;;;;8.82;3.30;;;21.20;99.90;;;;;;4085581;29;20223;-92
2023/06/16 00:12:56;;;;;;;11.25;3.70;;;21.20;99.90;;;;;;4101358;29;20183;-94
2023/06/16 00:14:57;;;;;;;8.57;3.90;;;21.00;99.90;;;;;;4101407;29;20663;-92
2023/06/16 00:16:57;;;;;;;12.32;3.88;;;20.70;99.90;;;;;;4085435;29;20584;-91
2023/06/16 00:18:59;;;;;;;10.05;3.45;;;20.50;99.90;;;;;;4085267;29;20223;-90
2023/06/16 00:21:02;;;;;;;6.95;3.25;;;20.30;99.90;;;;;;4085359;29;20183;-90
2023/06/16 00:23:06;;;;;;;10.63;3.40;;;20.20;99.90;;;;;;4085260;29;20227;-91
2023/06/16 00:25:11;;;;;;;10.38;3.55;;;19.90;99.90;;;;;;4101107;29;20572;-91
2023/06/16 00:27:12;;;;;;;6.75;3.90;;;19.90;99.90;;;;;;4101135;29;20246;-91
2023/06/16 00:29:13;;;;;;;9.00;3.67;;;19.90;99.90;;;;;;4101309;29;20171;-92
2023/06/16 00:31:15;;;;;;;11.85;4.10;;;19.80;99.90;;;;;;4085410;29;20271;-95
2023/06/16 00:33:16;;;;;;;8.85;3.53;;;19.80;99.90;;;;;;4100798;29;20175;-93
2023/06/16 00:35:16;;;;;;;8.45;3.75;;;19.50;99.90;;;;;;4100919;29;20218;-91
2023/06/16 00:37:17;;;;;;;9.70;3.47;;;19.30;99.90;;;;;;4100724;29;20215;-91
2023/06/16 00:39:18;;;;;;;13.98;3.88;;;19.30;99.90;;;;;;4084912;29;20278;-90
2023/06/16 00:41:19;;;;;;;5.97;3.83;;;19.30;99.90;;;;;;4084799;29;20713;-91
2023/06/16 00:43:20;;;;;;;7.60;3.78;;;19.20;99.90;;;;;;4084909;29;20221;-90
2023/06/16 00:45:20;;;;;;;8.55;3.60;;;19.20;99.90;;;;;;4085116;29;20172;-92
2023/06/16 00:47:21;;;;;;;14.27;4.35;;;19.00;99.90;;;;;;4084883;29;20211;-90
2023/06/16 00:49:22;;;;;;;8.25;3.88;;;19.10;99.90;;;;;;4084984;29;20175;-92
2023/06/16 00:51:28;;;;;;;18.23;4.68;;;19.10;99.90;;;;;;4100960;29;20167;-91
2023/06/16 00:53:31;;;;;;;9.55;3.80;;;19.10;99.90;;;;;;4100669;29;20815;-90
2023/06/16 00:55:34;;;;;;;13.32;4.38;;;19.20;99.90;;;;;;4101454;28;20194;-91
2023/06/16 00:57:35;;;;;;;10.77;3.95;;;19.20;99.90;;;;;;4084630;29;20230;-92
2023/06/16 00:59:36;;;;;;;12.00;4.28;;;19.10;99.90;;;;;;4100782;29;20167;-93
2023/06/16 01:01:38;;;;;;;8.10;3.90;;;19.20;99.90;;;;;;4101771;28;20175;-91
2023/06/16 01:03:39;;;;;;;11.32;4.85;;;19.10;99.90;;;;;;4090128;29;20243;-91
2023/06/16 01:05:40;;;;;;;16.98;4.07;;;19.00;99.90;;;;;;4103778;29;20180;-90
2023/06/16 01:07:50;;;;;;;7.63;4.28;;;19.00;99.90;;;;;;4089924;29;20280;-93
2023/06/16 01:10:03;;;;;;;13.70;4.30;;;18.90;99.90;;;;;;4100417;29;20663;-90
2023/06/16 01:12:05;;;;;;;9.10;3.85;;;18.90;99.90;;;;;;4100431;29;20277;-91
2023/06/16 01:14:19;;;;;;;13.55;4.18;;;18.90;99.90;;;;;;4084809;29;20184;-90
2023/06/16 01:16:25;;;;;;;11.35;4.43;;;18.90;99.90;;;;;;4100399;28;20189;-90
2023/06/16 01:18:29;;;;;;;9.23;4.22;;;18.80;99.90;;;;;;4100350;29;20201;-90
2023/06/16 01:20:53;;;;;;;11.93;4.20;;;18.80;99.90;;;;;;4100206;29;20261;-92
2023/06/16 01:23:08;;;;;;;10.48;4.47;;;18.70;99.90;;;;;;4100056;29;20247;-91
2023/06/16 01:25:14;;;;;;;13.43;4.40;;;18.70;99.90;;;;;;4084039;29;20183;-91
2023/06/16 01:27:18;;;;;;;9.18;4.65;;;18.70;99.90;;;;;;4100234;28;20202;-91
2023/06/16 01:29:24;;;;;;;15.82;5.13;;;18.80;99.90;;;;;;4100211;29;20175;-92
2023/06/16 01:31:36;;;;;;;8.80;4.60;;;18.80;99.90;;;;;;4100244;29;20185;-92
2023/06/16 01:33:41;;;;;;;14.05;4.78;;;18.70;99.90;;;;;;4100368;29;20628;-94
2023/06/16 01:35:43;;;;;;;10.55;5.00;;;18.60;99.90;;;;;;4100423;29;20197;-92
2023/06/16 01:37:45;;;;;;;6.97;4.55;;;18.30;99.90;;;;;;4100006;28;20238;-92
2023/06/16 01:39:47;;;;;;;13.32;5.20;;;18.20;99.90;;;;;;4100040;29;20250;-91
2023/06/16 01:41:49;;;;;;;12.32;5.00;;;18.00;99.90;;;;;;4100284;29;20163;-93
2023/06/16 01:43:51;;;;;;;16.35;5.00;;;18.00;99.90;;;;;;4100618;29;20237;-91
2023/06/16 01:45:53;;;;;;;13.20;5.75;;;18.00;99.90;;;;;;4095209;29;20171;-91
2023/06/16 01:47:54;;;;;;;8.50;6.00;;;18.10;99.90;;;;;;4113482;28;20209;-94
2023/06/16 01:49:56;;;;;;;19.08;5.75;;;18.10;99.90;;;;;;4084658;29;20190;-93
2023/06/16 01:51:58;;;;;;;11.48;5.68;;;18.10;99.90;;;;;;4084516;29;20548;-89
2023/06/16 01:53:58;;;;;;;14.45;4.95;;;18.00;99.90;;;;;;4084416;29;20175;-90
2023/06/16 01:55:59;;;;;;;10.38;5.57;;;18.00;99.90;;;;;;4084413;29;20211;-94
2023/06/16 01:58:00;;;;;;;9.93;5.40;;;17.90;99.90;;;;;;4083740;29;20618;-91
2023/06/16 02:00:16;;;;;;;15.07;5.35;;;17.90;99.90;;;;;;4083704;29;20167;-94
2023/06/16 02:02:20;;;;;;;8.27;5.45;;;17.80;99.90;;;;;;4100071;29;20175;-90
2023/06/16 02:04:23;;;;;;;12.18;5.00;;;17.80;99.90;;;;;;4099884;29;20215;-89
2023/06/16 02:06:30;;;;;;;6.32;4.38;;;17.90;99.90;;;;;;4099831;29;20212;-91
2023/06/16 02:08:32;;;;;;;10.13;5.20;;;18.00;99.90;;;;;;4099982;29;20175;-90
2023/06/16 02:10:33;;;;;;;9.40;5.10;;;17.90;99.90;;;;;;4099768;29;20195;-94
2023/06/16 02:12:35;;;;;;;18.23;5.88;;;17.80;99.90;;;;;;4085220;29;20202;-90
2023/06/16 02:14:36;;;;;;;9.43;6.10;;;17.60;99.90;;;;;;4103337;29;20217;-90
2023/06/16 02:16:42;;;;;;;13.57;5.53;;;17.70;99.90;;;;;;4087249;29;20201;-90
2023/06/16 02:18:43;;;;;;;12.15;5.63;;;17.70;99.90;;;;;;4102893;29;20678;-89
2023/06/16 02:20:45;;;;;;;6.90;5.13;;;17.80;99.90;;;;;;4103242;29;20175;-93
2023/06/16 02:22:46;;;;;;;8.90;5.10;;;17.90;99.90;;;;;;4087115;29;20237;-91
2023/06/16 02:24:47;;;;;;;11.32;5.13;;;17.90;99.90;;;;;;4102770;29;20179;-91
2023/06/16 02:26:48;;;;;;;13.05;5.78;;;17.70;99.90;;;;;;4102896;28;20199;-90
2023/06/16 02:28:51;;;;;;;13.88;6.50;;;17.60;99.90;;;;;;4087116;29;20220;-90
2023/06/16 02:30:52;;;;;;;12.18;6.15;;;17.70;99.90;;;;;;4102692;29;20180;-91
2023/06/16 02:32:52;;;;;;;12.93;6.10;;;17.50;99.90;;;;;;4086944;29;20315;-91
2023/06/16 02:34:55;;;;;;;20.83;6.40;;;17.40;99.90;;;;;;4102743;29;20257;-91
2023/06/16 02:36:57;;;;;;;17.13;5.88;;;17.30;99.90;;;;;;4102843;28;20214;-91
2023/06/16 02:38:58;;;;;;;15.20;6.35;;;17.20;99.90;;;;;;4086846;29;20203;-91
2023/06/16 02:40:59;;;;;;;12.30;6.22;;;17.30;99.90;;;;;;4086796;29;20175;-91
2023/06/16 02:43:00;;;;;;;11.45;6.18;;;17.30;99.90;;;;;;4086989;29;20215;-90
2023/06/16 02:45:01;;;;;;;10.88;6.28;;;17.30;99.90;;;;;;4086619;29;20195;-91
2023/06/16 02:47:01;;;;;;;7.82;5.35;;;17.40;99.90;;;;;;4086736;29;20204;-91
2023/06/16 02:49:04;;;;;;;11.88;5.85;;;17.40;99.90;;;;;;4102365;29;20563;-94
2023/06/16 02:51:05;;;;;;;12.30;6.18;;;17.50;99.90;;;;;;4102413;29;20241;-91
2023/06/16 02:53:07;;;;;;;15.45;5.50;;;17.60;99.90;;;;;;4086490;29;20168;-90
2023/06/16 02:55:09;;;;;;;8.55;5.32;;;17.70;99.90;;;;;;4086463;29;20567;-94
2023/06/16 02:57:16;;;;;;;9.52;5.60;;;17.70;99.90;;;;;;4087284;29;20191;-91
2023/06/16 02:59:20;;;;;;;10.27;5.53;;;17.70;99.90;;;;;;4086849;29;20291;-92
2023/06/16 03:01:21;;;;;;;14.98;5.63;;;17.70;99.90;;;;;;4086647;29;20179;-92
2023/06/16 03:03:52;;;;;;;7.57;4.72;;;17.70;99.90;;;;;;4091737;29;20246;-92
2023/06/16 03:06:22;;;;;;;9.30;5.20;;;17.60;99.90;;;;;;4099574;28;20179;-92
2023/06/16 03:08:23;;;;;;;9.80;5.05;;;17.70;99.90;;;;;;4086501;29;20195;-90
2023/06/16 03:10:24;;;;;;;13.73;5.53;;;17.70;99.90;;;;;;4086268;29;20175;-90
2023/06/16 03:12:38;;;;;;;11.90;5.20;;;17.60;99.90;;;;;;4088023;29;20240;-92
2023/06/16 03:14:42;;;;;;;9.40;5.15;;;17.50;99.90;;;;;;4086703;29;20171;-91
2023/06/16 03:16:51;;;;;;;8.88;4.75;;;17.40;99.90;;;;;;4087330;28;20210;-91
2023/06/16 03:18:54;;;;;;;11.73;5.05;;;17.20;99.90;;;;;;4086476;29;20215;-92
2023/06/16 03:20:55;;;;;;;16.10;5.03;;;17.20;99.90;;;;;;4102239;29;20175;-92
2023/06/16 03:23:01;;;;;;;11.27;5.32;;;17.00;99.90;;;;;;4086715;29;20241;-90
2023/06/16 03:25:04;;;;;;;11.32;5.80;;;16.80;99.90;;;;;;4102150;29;20174;-90
2023/06/16 03:27:12;;;;;;;17.75;5.97;;;16.50;99.90;;;;;;4086408;29;20195;-90
2023/06/16 03:29:29;;;;;;;13.38;6.18;;;16.50;99.90;;;;;;4101992;29;20166;-91
2023/06/16 03:31:30;;;;;;;19.15;6.78;;;16.40;99.90;;;;;;4086221;29;20191;-90
2023/06/16 03:33:33;;;;;;;12.98;6.63;;;16.50;99.90;;;;;;4101800;29;20267;-93
2023/06/16 03:35:34;;;;;;;16.80;6.45;;;16.50;99.90;;;;;;4085941;29;20175;-92
2023/06/16 03:37:38;;;;;;;9.40;5.88;;;16.60;99.90;;;;;;4101771;28;20191;-92
2023/06/16 03:39:40;;;;;;;12.75;5.85;;;16.80;99.90;;;;;;4086017;29;20195;-92
2023/06/16 03:41:41;;;;;;;10.52;5.07;;;17.00;99.90;;;;;;4085785;29;20592;-93
2023/06/16 03:43:43;;;;;;;7.85;5.30;;;17.10;99.90;;;;;;4101803;28;20210;-93
2023/06/16 03:45:44;;;;;;;9.75;5.80;;;17.20;99.90;;;;;;4101829;29;20171;-93
2023/06/16 03:47:45;;;;;;;12.65;5.78;;;17.20;99.90;;;;;;4085615;29;20196;-91
2023/06/16 03:49:47;;;;;;;12.43;5.53;;;17.30;99.90;;;;;;4101401;29;20211;-93
2023/06/16 03:51:48;;;;;;;9.88;5.75;;;17.20;99.90;;;;;;4085577;29;20176;-91
2023/06/16 03:53:49;;;;;;;14.82;5.63;;;17.20;99.90;;;;;;4101634;29;20184;-91
2023/06/16 03:55:50;;;;;;;15.20;5.25;;;17.30;99.90;;;;;;4085730;29;20176;-90
2023/06/16 03:57:51;;;;;;;15.85;5.28;;;17.30;99.90;;;;;;4085633;29;20225;-92
2023/06/16 03:59:52;;;;;;;9.82;5.38;;;17.30;99.90;;;;;;4101509;29;20715;-93
2023/06/16 04:01:52;;;;;;;10.60;5.45;;;17.40;99.90;;;;;;4085630;29;20175;-91
2023/06/16 04:03:54;;;;;;;16.15;6.07;;;17.40;99.90;;;;;;4101359;29;20273;-92
2023/06/16 04:05:55;;;;;;;12.02;5.85;;;17.50;99.90;;;;;;4085622;29;20171;-92
2023/06/16 04:07:56;;;;;;;11.10;5.38;;;17.50;99.90;;;;;;4101379;28;20227;-90
2023/06/16 04:09:58;;;;;;;16.92;5.43;;;17.60;99.90;;;;;;4101258;28;20179;-92
2023/06/16 04:11:59;;;;;;;14.50;5.70;;;17.70;99.90;;;;;;4101292;29;20202;-92
2023/06/16 04:14:00;;;;;;;10.88;5.25;;;17.90;99.90;;;;;;4085148;29;20183;-91
2023/06/16 04:16:01;;;;;;;13.68;5.30;;;18.00;99.90;;;;;;4085371;29;20176;-91
2023/06/16 04:18:02;;;;;;;11.68;5.00;;;18.10;99.90;;;;;;4101171;28;20229;-90
2023/06/16 04:20:09;;;;;;;11.93;4.88;;;18.10;99.90;;;;;;4085454;29;20460;-92
2023/06/16 04:22:10;;;;;;;11.02;4.88;;;18.10;99.90;;;;;;4100831;29;20173;-92
2023/06/16 04:24:25;;;;;;;14.73;5.75;;;18.20;99.90;;;;;;4087045;29;20605;-92
2023/06/16 04:26:26;;;;;;;25.55;6.55;;;18.20;99.90;;;;;;4100952;29;20234;-92
2023/06/16 04:28:28;;;;;;;13.10;5.88;;;18.20;99.90;;;;;;4100986;29;20171;-91
2023/06/16 04:30:30;;;;;;;12.85;7.22;;;18.20;99.90;;;;;;4084894;29;20227;-93
2023/06/16 04:32:34;;;;;;;12.05;6.85;;;18.10;99.90;;;;;;4085028;29;20167;-91
2023/06/16 04:34:36;;;;;;;26.02;7.78;;;18.10;99.90;;;;;;4084721;29;20676;-91
2023/06/16 04:36:44;;;;;;;11.63;6.75;;;18.10;99.90;;;;;;4115202;28;20238;-91
2023/06/16 04:39:05;;;;;;;15.38;7.97;;;18.10;99.90;;;;;;4106679;28;20269;-92
2023/06/16 04:41:06;;;;;;;22.42;6.95;;;18.10;99.90;;;;;;4101383;29;20703;-91
2023/06/16 04:43:07;;;;;;;11.70;6.93;;;18.20;99.90;;;;;;4101183;29;20298;-92
2023/06/16 04:45:08;;;;;;;14.52;7.75;;;18.20;99.90;;;;;;4085111;29;20179;-90
2023/06/16 04:47:14;;;;;;;13.27;7.18;;;18.20;99.90;;;;;;4101367;28;20639;-90
2023/06/16 04:49:16;;;;;;;16.25;7.53;;;18.40;99.90;;;;;;4085074;29;20227;-91
2023/06/16 04:51:17;;;;;;;21.42;7.75;;;18.30;99.90;;;;;;4084726;29;20180;-94
2023/06/16 04:53:17;;;;;;;15.77;7.82;;;18.40;99.90;;;;;;4084848;29;20620;-92
2023/06/16 04:55:20;;;;;;;16.83;7.88;;;18.40;99.90;;;;;;4084762;29;20184;-91
2023/06/16 04:57:21;;;;;;;13.57;7.97;;;18.40;99.90;;;;;;4100729;28;20190;-91
2023/06/16 04:59:22;;;;;;;20.77;8.20;;;18.20;99.90;;;;;;4100813;29;20740;-92
2023/06/16 05:01:26;;;;;;;23.60;8.82;;;18.10;99.90;;;;;;4100706;29;20263;-90
2023/06/16 05:03:27;;;;;;;17.17;7.68;;;18.30;99.90;;;;;;4100475;29;20215;-93
2023/06/16 05:05:27;;;;;;;16.00;8.18;;;18.30;99.90;;;;;;4084717;29;20175;-92
2023/06/16 05:07:28;;;;;;;19.67;9.73;;;18.10;99.90;;;;;;4100502;28;20587;-92
2023/06/16 05:09:29;;;;;;;18.20;9.15;;;18.20;99.90;;;;;;4100596;29;20163;-91
2023/06/16 05:11:30;;;;;;;23.83;9.73;;;18.30;99.90;;;;;;4084434;29;20211;-91
2023/06/16 05:13:31;;;;;;;21.33;9.68;;;18.30;99.90;;;;;;4084507;29;20267;-92
2023/06/16 05:15:32;;;;;;;19.40;9.45;;;18.30;99.90;;;;;;4084273;29;20202;-92
2023/06/16 05:17:34;;;;;;;15.85;9.88;;;18.40;99.90;;;;;;4084676;29;20267;-92
2023/06/16 05:19:35;;;;;;;23.67;9.18;;;18.50;99.90;;;;;;4084401;29;20176;-91
2023/06/16 05:21:36;;;;;;;19.98;9.98;;;18.60;99.90;;;;;;4084602;29;20218;-92
2023/06/16 05:23:37;;;;;;;16.30;9.18;;;18.80;99.90;;;;;;4100423;29;20215;-91
2023/06/16 05:25:37;;;;;;;15.57;9.85;;;18.90;99.90;;;;;;4084174;29;20172;-91
2023/06/16 05:27:40;;;;;;;24.73;11.23;;;19.00;99.90;;;;;;4084786;29;20199;-91
2023/06/16 05:29:41;;;;;;;23.98;10.48;;;19.00;99.90;;;;;;4100667;28;20621;-92
2023/06/16 05:31:42;;;;;;;25.88;10.55;;;19.00;99.90;;;;;;4084487;29;20210;-92
2023/06/16 05:33:43;;;;;;;34.10;11.65;;;19.50;99.90;;;;;;4084092;29;20254;-92
2023/06/16 05:35:44;;;;;;;32.85;10.68;;;19.30;99.90;;;;;;4100199;29;20175;-91
2023/06/16 05:37:45;;;;;;;25.20;11.40;;;19.30;99.90;;;;;;4084184;29;20303;-91
2023/06/16 05:39:47;;;;;;;24.27;12.25;;;19.60;99.90;;;;;;4084078;29;20187;-92
2023/06/16 05:41:48;;;;;;;44.47;12.40;;;20.10;99.90;;;;;;4084160;29;20175;-91
2023/06/16 05:43:54;;;;;;;36.38;11.90;;;20.20;99.90;;;;;;4084437;29;20219;-92
2023/06/16 05:45:55;;;;;;;24.67;11.60;;;19.70;99.90;;;;;;4100124;29;20452;-92
2023/06/16 05:47:56;;;;;;;22.23;11.65;;;19.40;99.90;;;;;;4083367;29;20192;-92
2023/06/16 05:49:59;;;;;;;22.90;11.35;;;19.50;99.90;;;;;;4084149;29;20175;-92
2023/06/16 05:52:05;;;;;;;24.27;10.75;;;19.50;99.90;;;;;;4084211;29;20651;-91
2023/06/16 05:54:06;;;;;;;24.80;11.70;;;19.80;99.90;;;;;;4099838;29;20179;-92
2023/06/16 05:56:07;;;;;;;23.85;11.20;;;20.40;99.90;;;;;;4084070;29;20171;-92
2023/06/16 05:58:09;;;;;;;30.45;12.40;;;20.70;99.90;;;;;;4083981;29;20207;-92
2023/06/16 06:00:10;;;;;;;34.22;12.32;;;20.80;99.90;;;;;;4084225;29;20266;-91
2023/06/16 06:02:14;;;;;;;32.75;11.55;;;20.80;99.90;;;;;;4100268;29;20163;-92
2023/06/16 06:04:31;;;;;;;31.65;11.77;;;20.60;99.90;;;;;;4099809;29;20179;-91
2023/06/16 06:06:35;;;;;;;19.85;10.15;;;20.70;99.90;;;;;;4099577;28;20536;-91
2023/06/16 06:08:36;;;;;;;23.85;9.70;;;20.80;99.90;;;;;;4099759;29;20517;-90
2023/06/16 06:10:39;;;;;;;17.50;9.75;;;20.80;99.90;;;;;;4099722;29;20244;-92
2023/06/16 06:12:39;;;;;;;18.65;10.00;;;20.80;99.90;;;;;;4099839;29;20215;-92
2023/06/16 06:14:41;;;;;;;22.08;9.60;;;20.50;99.90;;;;;;4099896;29;20178;-91
2023/06/16 06:16:43;;;;;;;17.58;9.35;;;20.50;99.90;;;;;;4084177;29;20267;-92
2023/06/16 06:18:45;;;;;;;16.58;9.55;;;20.40;99.90;;;;;;4083902;29;20180;-92
2023/06/16 06:20:46;;;;;;;17.58;9.85;;;20.50;99.90;;;;;;4083856;29;20196;-92
2023/06/16 06:22:47;;;;;;;16.77;8.77;;;20.50;99.90;;;;;;4099500;29;20191;-91
2023/06/16 06:24:48;;;;;;;18.25;9.48;;;20.50;99.90;;;;;;4083814;29;20179;-91
2023/06/16 06:26:49;;;;;;;18.52;9.55;;;20.60;99.90;;;;;;4083807;29;20282;-92
2023/06/16 06:28:50;;;;;;;14.52;9.40;;;20.70;99.90;;;;;;4084151;29;20585;-90
2023/06/16 06:30:51;;;;;;;19.65;8.98;;;20.80;99.90;;;;;;4084257;29;20263;-91
2023/06/16 06:32:52;;;;;;;15.73;9.40;;;20.90;99.90;;;;;;4083970;29;20175;-91
2023/06/16 06:34:53;;;;;;;13.70;8.90;;;20.90;99.90;;;;;;4083810;29;20176;-92
2023/06/16 06:36:55;;;;;;;22.88;9.73;;;21.00;99.90;;;;;;4084003;29;20191;-91
2023/06/16 06:38:57;;;;;;;36.47;10.88;;;21.00;99.90;;;;;;4083708;29;20214;-92
2023/06/16 06:40:58;;;;;;;20.67;9.23;;;21.10;99.90;;;;;;4099493;29;20179;-93
2023/06/16 06:43:00;;;;;;;19.25;9.38;;;21.10;99.90;;;;;;4099465;28;20195;-91
2023/06/16 06:45:13;;;;;;;14.65;9.55;;;21.20;99.90;;;;;;4084880;29;20211;-94
2023/06/16 06:47:14;;;;;;;17.15;9.07;;;21.30;99.90;;;;;;4099554;28;20194;-92
2023/06/16 06:49:16;;;;;;;19.52;9.05;;;21.40;99.90;;;;;;4084151;29;20278;-92
2023/06/16 06:51:17;;;;;;;20.65;9.07;;;21.40;99.90;;;;;;4083786;29;20655;-91
2023/06/16 06:53:18;;;;;;;17.48;9.20;;;21.40;99.90;;;;;;4099568;29;20179;-91
2023/06/16 06:55:20;;;;;;;17.45;8.90;;;21.30;99.90;;;;;;4084214;29;20171;-92
2023/06/16 06:57:20;;;;;;;17.50;9.25;;;21.40;99.90;;;;;;4099393;28;20206;-92
2023/06/16 06:59:21;;;;;;;14.70;9.10;;;21.40;99.90;;;;;;4101410;28;20167;-91
2023/06/16 07:01:22;;;;;;;22.00;8.85;;;21.60;99.90;;;;;;4102295;29;20179;-94
2023/06/16 07:03:23;;;;;;;14.60;8.85;;;21.60;99.90;;;;;;4086487;29;20596;-91
2023/06/16 07:05:23;;;;;;;28.38;9.30;;;21.80;99.90;;;;;;4102241;29;20182;-91
2023/06/16 07:07:24;;;;;;;16.00;9.35;;;21.80;99.90;;;;;;4102252;28;20190;-93
2023/06/16 07:09:25;;;;;;;20.40;8.35;;;21.90;99.90;;;;;;4102307;29;20186;-91
2023/06/16 07:11:26;;;;;;;19.08;9.02;;;21.90;99.90;;;;;;4086427;29;20207;-90
2023/06/16 07:13:26;;;;;;;18.33;8.45;;;22.10;99.90;;;;;;4102144;29;20182;-91
2023/06/16 07:15:27;;;;;;;15.20;8.02;;;22.80;99.90;;;;;;4102098;29;20206;-91
2023/06/16 07:17:30;;;;;;;15.18;7.80;;;23.80;99.90;;;;;;4101923;29;20183;-91
2023/06/16 07:19:30;;;;;;;17.38;7.68;;;24.90;99.90;;;;;;4101852;29;20182;-91
2023/06/16 07:21:31;;;;;;;22.80;8.18;;;26.00;99.90;;;;;;4102068;29;20651;-92
2023/06/16 07:23:32;;;;;;;15.18;7.35;;;27.10;99.90;;;;;;4101947;29;20206;-91
2023/06/16 07:25:36;;;;;;;10.73;7.43;;;28.10;99.90;;;;;;4086264;29;20203;-92
2023/06/16 07:27:36;;;;;;;17.08;7.95;;;28.60;99.90;;;;;;4086475;29;20195;-93
2023/06/16 07:29:37;;;;;;;20.67;7.75;;;28.90;99.90;;;;;;4086095;29;20234;-93
2023/06/16 07:31:38;;;;;;;19.98;7.15;;;29.20;99.90;;;;;;4086015;29;20666;-92
2023/06/16 07:33:39;;;;;;;14.85;7.93;;;29.90;99.90;;;;;;4086097;29;20184;-92
2023/06/16 07:35:39;;;;;;;16.65;7.78;;;30.10;99.90;;;;;;4086026;29;20597;-91
2023/06/16 07:37:40;;;;;;;13.27;6.65;;;30.50;99.90;;;;;;4101979;28;20238;-91
2023/06/16 07:39:42;;;;;;;13.45;7.20;;;30.70;99.90;;;;;;4085940;29;20639;-92
2023/06/16 07:41:43;;;;;;;12.50;6.65;;;31.00;99.90;;;;;;4085843;29;20176;-91
2023/06/16 07:43:43;;;;;;;15.05;7.28;;;30.80;99.90;;;;;;4085845;29;20218;-92
2023/06/16 07:45:44;;;;;;;14.23;8.05;;;30.80;99.90;;;;;;4085925;29;20183;-92
2023/06/16 07:47:48;;;;;;;14.98;8.07;;;30.50;99.90;;;;;;4085672;29;20267;-91
2023/06/16 07:49:49;;;;;;;11.75;8.02;;;30.00;99.90;;;;;;4085817;29;20215;-92
2023/06/16 07:51:50;;;;;;;8.77;6.75;;;30.40;99.90;;;;;;4101902;29;20187;-91
2023/06/16 07:53:51;;;;;;;14.15;7.38;;;30.40;99.90;;;;;;4085668;29;20175;-92
2023/06/16 07:55:52;;;;;;;15.80;6.72;;;30.80;99.90;;;;;;4101723;29;20219;-94
2023/06/16 07:57:53;;;;;;;18.83;7.20;;;30.60;99.90;;;;;;4101531;28;20203;-92
2023/06/16 07:59:54;;;;;;;18.50;6.88;;;31.00;99.90;;;;;;4101482;29;20296;-93
2023/06/16 08:01:54;;;;;;;28.08;6.65;;;31.00;99.90;;;;;;4101417;29;20261;-93
2023/06/16 08:03:56;;;;;;;16.20;6.70;;;31.70;99.90;;;;;;4085631;29;20546;-92
2023/06/16 08:05:57;;;;;;;16.58;7.78;;;31.70;99.90;;;;;;4085566;29;20179;-92
2023/06/16 08:07:58;;;;;;;17.98;6.90;;;32.00;99.90;;;;;;4101282;28;20194;-93
2023/06/16 08:09:58;;;;;;;15.63;7.18;;;32.20;99.90;;;;;;4100532;28;20175;-92
2023/06/16 08:11:59;;;;;;;20.80;8.15;;;32.50;99.90;;;;;;4101290;29;20171;-92
2023/06/16 08:14:00;;;;;;;39.42;8.70;;;33.00;99.90;;;;;;4101347;29;20218;-93
2023/06/16 08:16:01;;;;;;;14.55;7.70;;;32.90;99.90;;;;;;4101302;29;20257;-90
2023/06/16 08:18:02;;;;;;;16.70;6.57;;;32.80;99.90;;;;;;4101202;29;20231;-94
2023/06/16 08:20:06;;;;;;;16.83;6.90;;;32.90;99.90;;;;;;4085436;29;20256;-93
2023/06/16 08:22:07;;;;;;;20.63;7.43;;;33.20;99.90;;;;;;4085574;29;20740;-92
2023/06/16 08:24:08;;;;;;;15.85;7.03;;;33.40;99.90;;;;;;4085020;29;20207;-93
2023/06/16 08:26:09;;;;;;;17.48;6.70;;;32.80;99.90;;;;;;4085193;29;20175;-94
2023/06/16 08:28:11;;;;;;;15.02;6.82;;;33.90;99.90;;;;;;4085346;29;20199;-95
2023/06/16 08:30:15;;;;;;;13.57;6.93;;;34.10;99.00;;;;;;4085232;29;20171;-94
2023/06/16 08:32:16;;;;;;;15.93;7.13;;;34.50;99.40;;;;;;4100826;29;20178;-89
2023/06/16 08:34:16;;;;;;;12.30;6.60;;;33.30;99.90;;;;;;4085525;29;20183;-90
2023/06/16 08:36:19;;;;;;;27.83;7.18;;;33.00;99.90;;;;;;4085364;29;20171;-90
2023/06/16 08:38:20;;;;;;;15.70;5.90;;;33.50;99.50;;;;;;4085024;29;20181;-92
2023/06/16 08:40:21;;;;;;;16.67;6.50;;;32.50;99.50;;;;;;4085069;29;20218;-93
2023/06/16 08:42:22;;;;;;;14.02;6.20;;;32.50;99.30;;;;;;4100937;29;20181;-93
2023/06/16 08:44:26;;;;;;;18.48;7.25;;;33.00;99.30;;;;;;4101084;29;20331;-92
2023/06/16 08:46:26;;;;;;;23.55;7.13;;;33.50;99.30;;;;;;4100874;28;20241;-91
2023/06/16 08:48:27;;;;;;;12.10;6.82;;;33.00;99.20;;;;;;4085198;29;20175;-94
2023/06/16 08:50:29;;;;;;;27.23;6.88;;;33.30;99.50;;;;;;4085029;29;20258;-91
2023/06/16 08:52:33;;;;;;;17.48;7.15;;;33.60;98.80;;;;;;4085026;29;20179;-92
2023/06/16 08:54:48;;;;;;;13.23;6.55;;;34.90;97.80;;;;;;4100786;29;20198;-88
2023/06/16 08:56:51;;;;;;;15.18;7.35;;;35.00;98.00;;;;;;4100820;28;20280;-88
2023/06/16 08:58:53;;;;;;;15.25;6.30;;;35.20;97.50;;;;;;4100890;29;20571;-89
2023/06/16 09:00:54;;;;;;;11.70;6.00;;;35.30;97.70;;;;;;4085071;29;20171;-90
2023/06/16 09:02:56;;;;;;;14.77;5.68;;;34.70;97.10;;;;;;4100788;29;20207;-89
2023/06/16 09:04:58;;;;;;;10.15;5.85;;;34.10;97.80;;;;;;4085127;29;20262;-89
2023/06/16 09:06:59;;;;;;;53.95;8.55;;;34.00;98.00;;;;;;4084790;29;20191;-88
2023/06/16 09:09:00;;;;;;;18.70;6.43;;;33.70;98.00;;;;;;4084763;29;20262;-91
2023/06/16 09:11:10;;;;;;;17.77;6.28;;;33.10;98.40;;;;;;4085003;29;20596;-94
2023/06/16 09:13:13;;;;;;;30.10;6.15;;;33.20;98.00;;;;;;4100796;29;20167;-90
2023/06/16 09:15:13;;;;;;;11.80;5.82;;;33.40;98.60;;;;;;4084669;29;20223;-93
2023/06/16 09:17:17;;;;;;;10.95;5.85;;;33.80;97.90;;;;;;4100539;28;20187;-90
2023/06/16 09:19:17;;;;;;;18.83;6.10;;;33.80;97.80;;;;;;4084675;29;20234;-91
2023/06/16 09:21:23;;;;;;;23.23;6.22;;;33.30;98.00;;;;;;4100319;28;20179;-89
2023/06/16 09:23:28;;;;;;;13.77;5.18;;;32.50;98.40;;;;;;4100301;29;20218;-89
2023/06/16 09:25:33;;;;;;;17.80;5.55;;;32.70;99.00;;;;;;4100315;29;20532;-89
2023/06/16 09:27:48;;;;;;;7.68;4.75;;;33.30;98.00;;;;;;4100258;29;20199;-89
2023/06/16 09:29:56;;;;;;;13.90;5.07;;;33.70;96.60;;;;;;4100740;29;20229;-89
2023/06/16 09:32:08;;;;;;;10.05;4.72;;;33.80;96.20;;;;;;4100489;29;20663;-90
2023/06/16 09:34:09;;;;;;;10.02;5.00;;;34.20;96.80;;;;;;4100481;29;20170;-88
2023/06/16 09:36:10;;;;;;;10.05;4.85;;;34.00;96.30;;;;;;4100243;29;20706;-89
2023/06/16 09:38:11;;;;;;;11.45;4.60;;;33.90;95.90;;;;;;4100352;29;20253;-88
2023/06/16 09:40:13;;;;;;;8.43;3.78;;;33.30;94.20;;;;;;4084345;29;20255;-88
2023/06/16 09:42:16;;;;;;;16.48;4.90;;;33.10;95.30;;;;;;4100294;29;20258;-88
2023/06/16 09:44:18;;;;;;;9.15;4.72;;;32.80;96.10;;;;;;4084420;29;20289;-89
2023/06/16 09:46:18;;;;;;;10.02;5.07;;;32.50;96.80;;;;;;4100188;28;20173;-89
2023/06/16 09:48:19;;;;;;;12.60;5.25;;;32.30;95.70;;;;;;4100329;29;20671;-88
2023/06/16 09:50:25;;;;;;;7.97;5.18;;;32.00;96.90;;;;;;4100992;29;20167;-89
2023/06/16 09:52:26;;;;;;;15.65;5.00;;;31.80;96.30;;;;;;4088344;29;20176;-90
2023/06/16 09:54:27;;;;;;;13.88;5.32;;;32.00;97.00;;;;;;4106595;29;20174;-90
2023/06/16 09:56:29;;;;;;;16.73;5.13;;;31.70;97.00;;;;;;4091223;29;20207;-90
2023/06/16 09:58:30;;;;;;;9.20;3.92;;;32.00;96.30;;;;;;4101249;29;20170;-93
2023/06/16 10:00:32;;;;;;;11.65;3.95;;;32.60;94.30;;;;;;4086325;29;20623;-94
2023/06/16 10:02:34;;;;;;;7.18;3.88;;;33.00;93.80;;;;;;4100671;29;20265;-94
2023/06/16 10:04:36;;;;;;;16.58;5.30;;;33.40;93.90;;;;;;4100559;29;20179;-91
2023/06/16 10:06:44;;;;;;;10.13;5.30;;;33.70;95.30;;;;;;4084610;29;20174;-92
2023/06/16 10:08:47;;;;;;;10.18;4.32;;;33.70;94.80;;;;;;4100366;29;20179;-93
2023/06/16 10:10:51;;;;;;;10.10;4.43;;;33.50;94.40;;;;;;4100302;29;20175;-94
2023/06/16 10:12:55;;;;;;;12.02;5.65;;;32.80;94.70;;;;;;4100602;29;20674;-93
2023/06/16 10:14:58;;;;;;;14.80;4.20;;;32.70;94.20;;;;;;4084203;29;20664;-96
2023/06/16 10:17:00;;;;;;;7.50;3.58;;;32.40;96.40;;;;;;4100031;29;20668;-94
2023/06/16 10:19:04;;;;;;;10.80;3.33;;;33.30;93.20;;;;;;4099642;29;20167;-94
2023/06/16 10:21:06;;;;;;;10.52;4.28;;;33.50;92.70;;;;;;4099903;29;20179;-93
2023/06/16 10:23:08;;;;;;;10.27;4.00;;;33.70;92.80;;;;;;4099871;29;20242;-93
2023/06/16 10:25:09;;;;;;;12.02;4.10;;;34.10;92.70;;;;;;4099765;29;20182;-91
2023/06/16 10:27:13;;;;;;;8.95;3.72;;;33.60;92.30;;;;;;4084200;29;20191;-93
2023/06/16 10:29:16;;;;;;;12.13;3.95;;;32.90;93.70;;;;;;4099934;29;20597;-92
2023/06/16 10:31:18;;;;;;;10.18;3.50;;;32.00;94.30;;;;;;4100567;29;20218;-94